sensor_id;sensor_type;location;lat;lon;timestamp;P1;durP1;ratioP1;P2;durP2;ratioP2
32918;SDS011;19280;42.646;21.150;2022-07-23T00:00:14;8.02;;;4.28;;
32918;SDS011;19280;42.646;21.150;2022-07-23T00:02:41;10.23;;;4.10;;
32918;SDS011;19280;42.646;21.150;2022-07-23T00:05:08;10.75;;;4.32;;
32918;SDS011;19280;42.646;21.150;2022-07-23T00:07:35;11.18;;;5.78;;
32918;SDS011;19280;42.646;21.150;2022-07-23T00:10:02;14.32;;;4.80;;
32918;SDS011;19280;42.646;21.150;2022-07-23T00:12:29;9.55;;;4.30;;
32918;SDS011;19280;42.646;21.150;2022-07-23T00:14:56;10.77;;;4.22;;
32918;SDS011;19280;42.646;21.150;2022-07-23T00:17:23;9.43;;;4.20;;
32918;SDS011;19280;42.646;21.150;2022-07-23T00:19:49;15.38;;;3.95;;
32918;SDS011;19280;42.646;21.150;2022-07-23T00:22:16;11.50;;;4.50;;
32918;SDS011;19280;42.646;21.150;2022-07-23T00:24:43;11.00;;;4.07;;
32918;SDS011;19280;42.646;21.150;2022-07-23T00:27:10;12.90;;;4.70;;
32918;SDS011;19280;42.646;21.150;2022-07-23T00:29:36;8.90;;;3.85;;
32918;SDS011;19280;42.646;21.150;2022-07-23T00:32:04;7.85;;;3.83;;
32918;SDS011;19280;42.646;21.150;2022-07-23T00:34:31;12.52;;;3.70;;
32918;SDS011;19280;42.646;21.150;2022-07-23T00:36:58;6.72;;;3.40;;
32918;SDS011;19280;42.646;21.150;2022-07-23T00:39:26;7.00;;;3.40;;
32918;SDS011;19280;42.646;21.150;2022-07-23T00:41:53;7.25;;;4.00;;
32918;SDS011;19280;42.646;21.150;2022-07-23T00:44:20;9.98;;;3.40;;
32918;SDS011;19280;42.646;21.150;2022-07-23T00:46:49;8.10;;;3.40;;
32918;SDS011;19280;42.646;21.150;2022-07-23T00:49:19;11.38;;;4.40;;
32918;SDS011;19280;42.646;21.150;2022-07-23T00:51:46;6.88;;;3.95;;
32918;SDS011;19280;42.646;21.150;2022-07-23T00:54:13;11.35;;;4.55;;
32918;SDS011;19280;42.646;21.150;2022-07-23T00:56:40;8.57;;;4.55;;
32918;SDS011;19280;42.646;21.150;2022-07-23T00:59:07;9.30;;;4.57;;
32918;SDS011;19280;42.646;21.150;2022-07-23T01:01:35;7.32;;;4.55;;
32918;SDS011;19280;42.646;21.150;2022-07-23T01:04:02;10.38;;;5.30;;
32918;SDS011;19280;42.646;21.150;2022-07-23T01:06:28;13.02;;;5.00;;
32918;SDS011;19280;42.646;21.150;2022-07-23T01:08:55;12.48;;;4.45;;
32918;SDS011;19280;42.646;21.150;2022-07-23T01:11:23;7.35;;;4.30;;
32918;SDS011;19280;42.646;21.150;2022-07-23T01:13:50;12.32;;;4.97;;
32918;SDS011;19280;42.646;21.150;2022-07-23T01:16:18;6.85;;;4.15;;
32918;SDS011;19280;42.646;21.150;2022-07-23T01:18:44;9.50;;;4.85;;
32918;SDS011;19280;42.646;21.150;2022-07-23T01:21:11;17.77;;;4.85;;
32918;SDS011;19280;42.646;21.150;2022-07-23T01:23:39;9.95;;;4.95;;
32918;SDS011;19280;42.646;21.150;2022-07-23T01:26:06;8.85;;;5.43;;
32918;SDS011;19280;42.646;21.150;2022-07-23T01:28:33;8.82;;;5.32;;
32918;SDS011;19280;42.646;21.150;2022-07-23T01:31:00;7.10;;;4.28;;
32918;SDS011;19280;42.646;21.150;2022-07-23T01:33:27;7.20;;;4.05;;
32918;SDS011;19280;42.646;21.150;2022-07-23T01:35:53;10.15;;;4.80;;
32918;SDS011;19280;42.646;21.150;2022-07-23T01:38:20;14.75;;;5.15;;
32918;SDS011;19280;42.646;21.150;2022-07-23T01:40:47;13.05;;;5.10;;
32918;SDS011;19280;42.646;21.150;2022-07-23T01:43:14;13.38;;;5.00;;
32918;SDS011;19280;42.646;21.150;2022-07-23T01:45:41;12.27;;;5.28;;
32918;SDS011;19280;42.646;21.150;2022-07-23T01:48:09;16.35;;;5.40;;
32918;SDS011;19280;42.646;21.150;2022-07-23T01:50:36;16.00;;;5.10;;
32918;SDS011;19280;42.646;21.150;2022-07-23T01:53:03;11.00;;;6.40;;
32918;SDS011;19280;42.646;21.150;2022-07-23T01:55:30;9.45;;;5.32;;
32918;SDS011;19280;42.646;21.150;2022-07-23T01:57:57;18.52;;;5.60;;
32918;SDS011;19280;42.646;21.150;2022-07-23T02:03:09;11.38;;;4.72;;
32918;SDS011;19280;42.646;21.150;2022-07-23T02:05:35;12.48;;;5.15;;
32918;SDS011;19280;42.646;21.150;2022-07-23T02:08:03;10.15;;;4.93;;
32918;SDS011;19280;42.646;21.150;2022-07-23T02:10:30;11.52;;;4.30;;
32918;SDS011;19280;42.646;21.150;2022-07-23T02:12:57;8.95;;;4.95;;
32918;SDS011;19280;42.646;21.150;2022-07-23T02:15:24;11.52;;;5.13;;
32918;SDS011;19280;42.646;21.150;2022-07-23T02:17:51;7.88;;;4.32;;
32918;SDS011;19280;42.646;21.150;2022-07-23T02:20:17;7.47;;;4.43;;
32918;SDS011;19280;42.646;21.150;2022-07-23T02:22:44;6.75;;;4.07;;
32918;SDS011;19280;42.646;21.150;2022-07-23T02:25:11;6.85;;;4.15;;
32918;SDS011;19280;42.646;21.150;2022-07-23T02:27:38;8.05;;;4.35;;
32918;SDS011;19280;42.646;21.150;2022-07-23T02:30:05;7.18;;;4.50;;
32918;SDS011;19280;42.646;21.150;2022-07-23T02:32:32;12.27;;;4.57;;
32918;SDS011;19280;42.646;21.150;2022-07-23T02:35:00;10.63;;;5.15;;
32918;SDS011;19280;42.646;21.150;2022-07-23T02:37:27;7.38;;;4.55;;
32918;SDS011;19280;42.646;21.150;2022-07-23T02:39:54;10.30;;;5.10;;
32918;SDS011;19280;42.646;21.150;2022-07-23T02:42:20;10.32;;;4.25;;
32918;SDS011;19280;42.646;21.150;2022-07-23T02:44:51;12.52;;;4.07;;
32918;SDS011;19280;42.646;21.150;2022-07-23T02:47:18;10.43;;;4.10;;
32918;SDS011;19280;42.646;21.150;2022-07-23T02:49:45;12.52;;;4.10;;
32918;SDS011;19280;42.646;21.150;2022-07-23T02:52:13;7.50;;;4.30;;
32918;SDS011;19280;42.646;21.150;2022-07-23T02:54:39;11.25;;;3.80;;
32918;SDS011;19280;42.646;21.150;2022-07-23T02:57:06;9.85;;;4.20;;
32918;SDS011;19280;42.646;21.150;2022-07-23T02:59:33;7.40;;;4.03;;
32918;SDS011;19280;42.646;21.150;2022-07-23T03:02:00;6.35;;;4.28;;
32918;SDS011;19280;42.646;21.150;2022-07-23T03:04:26;7.63;;;4.50;;
32918;SDS011;19280;42.646;21.150;2022-07-23T03:06:53;12.18;;;5.47;;
32918;SDS011;19280;42.646;21.150;2022-07-23T03:09:20;13.20;;;6.30;;
32918;SDS011;19280;42.646;21.150;2022-07-23T03:11:47;21.27;;;6.68;;
32918;SDS011;19280;42.646;21.150;2022-07-23T03:14:13;16.30;;;5.60;;
32918;SDS011;19280;42.646;21.150;2022-07-23T03:16:43;12.95;;;6.53;;
32918;SDS011;19280;42.646;21.150;2022-07-23T03:19:09;12.90;;;6.15;;
32918;SDS011;19280;42.646;21.150;2022-07-23T03:21:36;14.15;;;6.32;;
32918;SDS011;19280;42.646;21.150;2022-07-23T03:24:07;18.15;;;6.18;;
32918;SDS011;19280;42.646;21.150;2022-07-23T03:26:34;15.25;;;5.50;;
32918;SDS011;19280;42.646;21.150;2022-07-23T03:29:01;14.23;;;6.30;;
32918;SDS011;19280;42.646;21.150;2022-07-23T03:31:29;13.93;;;6.00;;
32918;SDS011;19280;42.646;21.150;2022-07-23T03:33:59;13.50;;;5.60;;
32918;SDS011;19280;42.646;21.150;2022-07-23T03:36:26;19.50;;;6.32;;
32918;SDS011;19280;42.646;21.150;2022-07-23T03:38:53;17.75;;;7.05;;
32918;SDS011;19280;42.646;21.150;2022-07-23T03:41:20;12.40;;;6.57;;
32918;SDS011;19280;42.646;21.150;2022-07-23T03:43:47;15.43;;;6.65;;
32918;SDS011;19280;42.646;21.150;2022-07-23T03:46:13;10.95;;;5.50;;
32918;SDS011;19280;42.646;21.150;2022-07-23T03:48:41;11.43;;;4.88;;
32918;SDS011;19280;42.646;21.150;2022-07-23T03:51:08;6.53;;;4.18;;
32918;SDS011;19280;42.646;21.150;2022-07-23T03:53:35;8.43;;;3.97;;
32918;SDS011;19280;42.646;21.150;2022-07-23T03:56:01;10.10;;;4.38;;
32918;SDS011;19280;42.646;21.150;2022-07-23T03:58:28;12.05;;;5.57;;
32918;SDS011;19280;42.646;21.150;2022-07-23T04:00:55;21.27;;;9.65;;
32918;SDS011;19280;42.646;21.150;2022-07-23T04:06:07;10.13;;;5.82;;
32918;SDS011;19280;42.646;21.150;2022-07-23T04:08:34;12.90;;;6.13;;
32918;SDS011;19280;42.646;21.150;2022-07-23T04:11:02;10.98;;;5.93;;
32918;SDS011;19280;42.646;21.150;2022-07-23T04:13:29;8.75;;;5.22;;
32918;SDS011;19280;42.646;21.150;2022-07-23T04:15:55;12.32;;;5.72;;
32918;SDS011;19280;42.646;21.150;2022-07-23T04:18:22;11.07;;;5.60;;
32918;SDS011;19280;42.646;21.150;2022-07-23T04:20:52;10.32;;;6.13;;
32918;SDS011;19280;42.646;21.150;2022-07-23T04:23:18;12.13;;;6.43;;
32918;SDS011;19280;42.646;21.150;2022-07-23T04:25:46;14.45;;;7.63;;
32918;SDS011;19280;42.646;21.150;2022-07-23T04:28:12;28.17;;;15.52;;
32918;SDS011;19280;42.646;21.150;2022-07-23T04:33:25;39.38;;;18.55;;
32918;SDS011;19280;42.646;21.150;2022-07-23T04:35:51;22.92;;;10.63;;
32918;SDS011;19280;42.646;21.150;2022-07-23T04:38:18;16.20;;;8.23;;
32918;SDS011;19280;42.646;21.150;2022-07-23T04:40:45;11.85;;;6.53;;
32918;SDS011;19280;42.646;21.150;2022-07-23T04:43:12;8.88;;;5.57;;
32918;SDS011;19280;42.646;21.150;2022-07-23T04:45:38;19.88;;;8.07;;
32918;SDS011;19280;42.646;21.150;2022-07-23T04:48:05;14.93;;;6.40;;
32918;SDS011;19280;42.646;21.150;2022-07-23T04:50:32;11.95;;;5.38;;
32918;SDS011;19280;42.646;21.150;2022-07-23T04:52:59;9.45;;;5.57;;
32918;SDS011;19280;42.646;21.150;2022-07-23T04:55:25;14.68;;;5.20;;
32918;SDS011;19280;42.646;21.150;2022-07-23T04:57:52;12.43;;;6.00;;
32918;SDS011;19280;42.646;21.150;2022-07-23T05:00:19;13.38;;;6.63;;
32918;SDS011;19280;42.646;21.150;2022-07-23T05:02:46;12.98;;;6.30;;
32918;SDS011;19280;42.646;21.150;2022-07-23T05:05:12;8.55;;;6.25;;
32918;SDS011;19280;42.646;21.150;2022-07-23T05:07:39;14.43;;;5.97;;
32918;SDS011;19280;42.646;21.150;2022-07-23T05:10:06;11.18;;;5.22;;
32918;SDS011;19280;42.646;21.150;2022-07-23T05:12:33;14.90;;;5.28;;
32918;SDS011;19280;42.646;21.150;2022-07-23T05:15:00;11.98;;;5.47;;
32918;SDS011;19280;42.646;21.150;2022-07-23T05:17:27;12.07;;;5.75;;
32918;SDS011;19280;42.646;21.150;2022-07-23T05:19:54;13.90;;;5.20;;
32918;SDS011;19280;42.646;21.150;2022-07-23T05:22:20;8.70;;;4.93;;
32918;SDS011;19280;42.646;21.150;2022-07-23T05:24:47;11.70;;;5.90;;
32918;SDS011;19280;42.646;21.150;2022-07-23T05:27:14;16.73;;;5.80;;
32918;SDS011;19280;42.646;21.150;2022-07-23T05:29:41;12.82;;;5.40;;
32918;SDS011;19280;42.646;21.150;2022-07-23T05:32:08;16.27;;;5.40;;
32918;SDS011;19280;42.646;21.150;2022-07-23T05:34:34;12.95;;;5.68;;
32918;SDS011;19280;42.646;21.150;2022-07-23T05:37:01;12.35;;;7.13;;
32918;SDS011;19280;42.646;21.150;2022-07-23T05:39:29;16.48;;;7.70;;
32918;SDS011;19280;42.646;21.150;2022-07-23T05:41:56;12.23;;;5.70;;
32918;SDS011;19280;42.646;21.150;2022-07-23T05:44:22;14.48;;;4.97;;
32918;SDS011;19280;42.646;21.150;2022-07-23T05:46:49;15.90;;;5.82;;
32918;SDS011;19280;42.646;21.150;2022-07-23T05:49:16;16.88;;;4.97;;
32918;SDS011;19280;42.646;21.150;2022-07-23T05:51:43;12.00;;;5.10;;
32918;SDS011;19280;42.646;21.150;2022-07-23T05:54:10;20.83;;;5.28;;
32918;SDS011;19280;42.646;21.150;2022-07-23T05:56:37;27.52;;;5.85;;
32918;SDS011;19280;42.646;21.150;2022-07-23T05:59:04;14.27;;;5.22;;
32918;SDS011;19280;42.646;21.150;2022-07-23T06:01:31;14.88;;;5.68;;
32918;SDS011;19280;42.646;21.150;2022-07-23T06:03:58;19.83;;;5.00;;
32918;SDS011;19280;42.646;21.150;2022-07-23T06:06:25;12.50;;;5.90;;
32918;SDS011;19280;42.646;21.150;2022-07-23T06:08:51;21.15;;;4.90;;
32918;SDS011;19280;42.646;21.150;2022-07-23T06:11:18;14.18;;;4.70;;
32918;SDS011;19280;42.646;21.150;2022-07-23T06:13:47;12.23;;;4.82;;
32918;SDS011;19280;42.646;21.150;2022-07-23T06:16:14;17.20;;;4.90;;
32918;SDS011;19280;42.646;21.150;2022-07-23T06:18:41;18.52;;;4.85;;
32918;SDS011;19280;42.646;21.150;2022-07-23T06:21:08;17.38;;;5.10;;
32918;SDS011;19280;42.646;21.150;2022-07-23T06:23:34;14.05;;;4.82;;
32918;SDS011;19280;42.646;21.150;2022-07-23T06:26:01;12.35;;;4.50;;
32918;SDS011;19280;42.646;21.150;2022-07-23T06:28:28;14.55;;;4.72;;
32918;SDS011;19280;42.646;21.150;2022-07-23T06:30:55;19.60;;;5.03;;
32918;SDS011;19280;42.646;21.150;2022-07-23T06:33:22;16.20;;;5.43;;
32918;SDS011;19280;42.646;21.150;2022-07-23T06:35:48;19.15;;;5.00;;
32918;SDS011;19280;42.646;21.150;2022-07-23T06:38:15;12.15;;;4.15;;
32918;SDS011;19280;42.646;21.150;2022-07-23T06:40:42;6.22;;;3.88;;
32918;SDS011;19280;42.646;21.150;2022-07-23T06:43:10;13.20;;;4.00;;
32918;SDS011;19280;42.646;21.150;2022-07-23T06:45:37;10.82;;;4.20;;
32918;SDS011;19280;42.646;21.150;2022-07-23T06:48:04;9.02;;;3.78;;
32918;SDS011;19280;42.646;21.150;2022-07-23T06:50:31;6.63;;;3.13;;
32918;SDS011;19280;42.646;21.150;2022-07-23T06:52:58;9.63;;;3.90;;
32918;SDS011;19280;42.646;21.150;2022-07-23T06:55:26;8.98;;;3.95;;
32918;SDS011;19280;42.646;21.150;2022-07-23T06:57:53;6.72;;;3.45;;
32918;SDS011;19280;42.646;21.150;2022-07-23T07:00:19;9.15;;;4.10;;
32918;SDS011;19280;42.646;21.150;2022-07-23T07:02:47;10.07;;;4.20;;
32918;SDS011;19280;42.646;21.150;2022-07-23T07:05:13;6.53;;;3.92;;
32918;SDS011;19280;42.646;21.150;2022-07-23T07:07:40;10.88;;;4.18;;
32918;SDS011;19280;42.646;21.150;2022-07-23T07:10:07;10.60;;;3.88;;
32918;SDS011;19280;42.646;21.150;2022-07-23T07:12:34;10.52;;;3.63;;
32918;SDS011;19280;42.646;21.150;2022-07-23T07:15:00;11.43;;;4.28;;
32918;SDS011;19280;42.646;21.150;2022-07-23T07:17:27;14.45;;;4.32;;
32918;SDS011;19280;42.646;21.150;2022-07-23T07:19:54;9.60;;;3.85;;
32918;SDS011;19280;42.646;21.150;2022-07-23T07:22:21;7.80;;;3.38;;
32918;SDS011;19280;42.646;21.150;2022-07-23T07:24:47;10.82;;;4.38;;
32918;SDS011;19280;42.646;21.150;2022-07-23T07:27:14;12.18;;;4.55;;
32918;SDS011;19280;42.646;21.150;2022-07-23T07:29:42;10.82;;;4.25;;
32918;SDS011;19280;42.646;21.150;2022-07-23T07:32:09;43.90;;;5.65;;
32918;SDS011;19280;42.646;21.150;2022-07-23T07:34:36;13.65;;;4.43;;
32918;SDS011;19280;42.646;21.150;2022-07-23T07:37:03;10.20;;;4.22;;
32918;SDS011;19280;42.646;21.150;2022-07-23T07:39:29;8.75;;;4.05;;
32918;SDS011;19280;42.646;21.150;2022-07-23T07:41:56;13.23;;;4.35;;
32918;SDS011;19280;42.646;21.150;2022-07-23T07:44:23;16.17;;;5.00;;
32918;SDS011;19280;42.646;21.150;2022-07-23T07:46:50;14.18;;;5.60;;
32918;SDS011;19280;42.646;21.150;2022-07-23T07:49:17;17.90;;;5.32;;
32918;SDS011;19280;42.646;21.150;2022-07-23T07:51:45;15.15;;;5.18;;
32918;SDS011;19280;42.646;21.150;2022-07-23T07:54:12;19.08;;;4.90;;
32918;SDS011;19280;42.646;21.150;2022-07-23T07:56:39;14.68;;;4.88;;
32918;SDS011;19280;42.646;21.150;2022-07-23T07:59:05;22.33;;;5.28;;
32918;SDS011;19280;42.646;21.150;2022-07-23T08:01:33;12.63;;;4.85;;
32918;SDS011;19280;42.646;21.150;2022-07-23T08:04:00;16.15;;;5.05;;
32918;SDS011;19280;42.646;21.150;2022-07-23T08:06:26;14.18;;;4.35;;
32918;SDS011;19280;42.646;21.150;2022-07-23T08:08:53;21.05;;;5.45;;
32918;SDS011;19280;42.646;21.150;2022-07-23T08:11:21;13.50;;;5.28;;
32918;SDS011;19280;42.646;21.150;2022-07-23T08:13:49;17.58;;;5.45;;
32918;SDS011;19280;42.646;21.150;2022-07-23T08:16:17;20.50;;;5.82;;
32918;SDS011;19280;42.646;21.150;2022-07-23T08:18:44;16.45;;;5.40;;
32918;SDS011;19280;42.646;21.150;2022-07-23T08:21:10;13.70;;;5.05;;
32918;SDS011;19280;42.646;21.150;2022-07-23T08:23:37;18.73;;;6.10;;
32918;SDS011;19280;42.646;21.150;2022-07-23T08:26:04;23.42;;;5.40;;
32918;SDS011;19280;42.646;21.150;2022-07-23T08:28:32;17.98;;;4.97;;
32918;SDS011;19280;42.646;21.150;2022-07-23T08:31:00;16.77;;;5.28;;
32918;SDS011;19280;42.646;21.150;2022-07-23T08:33:27;24.70;;;7.65;;
32918;SDS011;19280;42.646;21.150;2022-07-23T08:35:53;17.85;;;5.50;;
32918;SDS011;19280;42.646;21.150;2022-07-23T08:38:21;12.05;;;5.07;;
32918;SDS011;19280;42.646;21.150;2022-07-23T08:40:50;15.55;;;5.32;;
32918;SDS011;19280;42.646;21.150;2022-07-23T08:43:18;19.23;;;5.93;;
32918;SDS011;19280;42.646;21.150;2022-07-23T08:45:46;11.25;;;4.53;;
32918;SDS011;19280;42.646;21.150;2022-07-23T08:48:14;10.50;;;4.13;;
32918;SDS011;19280;42.646;21.150;2022-07-23T08:50:42;11.13;;;4.28;;
32918;SDS011;19280;42.646;21.150;2022-07-23T08:53:10;16.95;;;3.80;;
32918;SDS011;19280;42.646;21.150;2022-07-23T08:55:37;12.35;;;4.30;;
32918;SDS011;19280;42.646;21.150;2022-07-23T08:58:04;9.68;;;4.18;;
32918;SDS011;19280;42.646;21.150;2022-07-23T09:00:31;12.70;;;4.72;;
32918;SDS011;19280;42.646;21.150;2022-07-23T09:02:58;14.00;;;5.20;;
32918;SDS011;19280;42.646;21.150;2022-07-23T09:05:25;15.85;;;4.20;;
32918;SDS011;19280;42.646;21.150;2022-07-23T09:15:58;14.43;;;4.00;;
32918;SDS011;19280;42.646;21.150;2022-07-23T09:21:16;16.17;;;4.45;;
32918;SDS011;19280;42.646;21.150;2022-07-23T09:23:47;12.93;;;4.05;;
32918;SDS011;19280;42.646;21.150;2022-07-23T09:26:18;15.27;;;3.60;;
32918;SDS011;19280;42.646;21.150;2022-07-23T09:28:49;9.60;;;3.50;;
32918;SDS011;19280;42.646;21.150;2022-07-23T09:31:16;10.27;;;4.03;;
32918;SDS011;19280;42.646;21.150;2022-07-23T09:33:43;12.23;;;3.17;;
32918;SDS011;19280;42.646;21.150;2022-07-23T09:36:10;15.73;;;3.72;;
32918;SDS011;19280;42.646;21.150;2022-07-23T09:38:49;12.73;;;4.82;;
32918;SDS011;19280;42.646;21.150;2022-07-23T09:41:16;15.65;;;4.10;;
32918;SDS011;19280;42.646;21.150;2022-07-23T09:43:43;13.40;;;3.97;;
32918;SDS011;19280;42.646;21.150;2022-07-23T09:46:21;11.05;;;4.07;;
32918;SDS011;19280;42.646;21.150;2022-07-23T09:48:52;7.47;;;3.05;;
32918;SDS011;19280;42.646;21.150;2022-07-23T09:51:20;9.80;;;3.25;;
32918;SDS011;19280;42.646;21.150;2022-07-23T09:53:56;9.05;;;3.08;;
32918;SDS011;19280;42.646;21.150;2022-07-23T09:56:23;11.48;;;2.95;;
32918;SDS011;19280;42.646;21.150;2022-07-23T09:58:51;12.32;;;3.22;;
32918;SDS011;19280;42.646;21.150;2022-07-23T10:01:26;10.25;;;3.10;;
32918;SDS011;19280;42.646;21.150;2022-07-23T10:03:54;11.32;;;3.38;;
32918;SDS011;19280;42.646;21.150;2022-07-23T10:06:22;12.45;;;4.05;;
32918;SDS011;19280;42.646;21.150;2022-07-23T10:08:49;8.90;;;2.95;;
32918;SDS011;19280;42.646;21.150;2022-07-23T10:11:16;4.05;;;3.00;;
32918;SDS011;19280;42.646;21.150;2022-07-23T10:13:43;9.50;;;3.40;;
32918;SDS011;19280;42.646;21.150;2022-07-23T10:16:18;10.25;;;3.50;;
32918;SDS011;19280;42.646;21.150;2022-07-23T10:18:46;12.23;;;3.33;;
32918;SDS011;19280;42.646;21.150;2022-07-23T10:21:16;7.45;;;2.95;;
32918;SDS011;19280;42.646;21.150;2022-07-23T10:23:45;12.80;;;3.50;;
32918;SDS011;19280;42.646;21.150;2022-07-23T10:31:41;6.43;;;2.72;;
32918;SDS011;19280;42.646;21.150;2022-07-23T10:34:27;9.32;;;3.22;;
32918;SDS011;19280;42.646;21.150;2022-07-23T10:39:41;15.88;;;4.88;;
32918;SDS011;19280;42.646;21.150;2022-07-23T10:42:11;13.43;;;2.90;;
32918;SDS011;19280;42.646;21.150;2022-07-23T10:44:42;10.15;;;3.17;;
32918;SDS011;19280;42.646;21.150;2022-07-23T10:47:09;10.23;;;3.03;;
32918;SDS011;19280;42.646;21.150;2022-07-23T11:00:45;12.93;;;3.22;;
32918;SDS011;19280;42.646;21.150;2022-07-23T11:06:10;10.95;;;2.95;;
32918;SDS011;19280;42.646;21.150;2022-07-23T11:08:37;10.45;;;3.25;;
32918;SDS011;19280;42.646;21.150;2022-07-23T11:13:32;10.40;;;3.25;;
32918;SDS011;19280;42.646;21.150;2022-07-23T11:24:13;8.32;;;2.95;;
32918;SDS011;19280;42.646;21.150;2022-07-23T11:31:58;9.55;;;3.10;;
32918;SDS011;19280;42.646;21.150;2022-07-23T11:34:33;8.93;;;3.15;;
32918;SDS011;19280;42.646;21.150;2022-07-23T11:37:01;15.50;;;3.22;;
32918;SDS011;19280;42.646;21.150;2022-07-23T11:39:29;4.90;;;2.70;;
32918;SDS011;19280;42.646;21.150;2022-07-23T11:41:58;11.35;;;3.10;;
32918;SDS011;19280;42.646;21.150;2022-07-23T11:44:26;13.38;;;3.88;;
32918;SDS011;19280;42.646;21.150;2022-07-23T11:46:57;12.25;;;3.08;;
32918;SDS011;19280;42.646;21.150;2022-07-23T11:49:24;13.18;;;3.65;;
32918;SDS011;19280;42.646;21.150;2022-07-23T11:52:08;14.70;;;3.45;;
32918;SDS011;19280;42.646;21.150;2022-07-23T11:54:58;12.32;;;2.92;;
32918;SDS011;19280;42.646;21.150;2022-07-23T11:57:24;13.38;;;3.13;;
32918;SDS011;19280;42.646;21.150;2022-07-23T11:59:55;12.38;;;3.20;;
32918;SDS011;19280;42.646;21.150;2022-07-23T12:02:23;14.63;;;3.28;;
32918;SDS011;19280;42.646;21.150;2022-07-23T12:04:52;11.63;;;3.38;;
32918;SDS011;19280;42.646;21.150;2022-07-23T12:07:28;10.05;;;3.80;;
32918;SDS011;19280;42.646;21.150;2022-07-23T12:09:56;11.48;;;2.72;;
32918;SDS011;19280;42.646;21.150;2022-07-23T12:12:23;13.55;;;3.53;;
32918;SDS011;19280;42.646;21.150;2022-07-23T12:14:51;8.80;;;3.22;;
32918;SDS011;19280;42.646;21.150;2022-07-23T12:17:19;9.88;;;3.00;;
32918;SDS011;19280;42.646;21.150;2022-07-23T12:19:46;13.50;;;3.88;;
32918;SDS011;19280;42.646;21.150;2022-07-23T12:22:13;11.65;;;2.92;;
32918;SDS011;19280;42.646;21.150;2022-07-23T12:24:57;16.45;;;3.97;;
32918;SDS011;19280;42.646;21.150;2022-07-23T12:27:26;8.70;;;2.83;;
32918;SDS011;19280;42.646;21.150;2022-07-23T12:29:53;16.15;;;3.30;;
32918;SDS011;19280;42.646;21.150;2022-07-23T12:35:02;10.15;;;3.70;;
32918;SDS011;19280;42.646;21.150;2022-07-23T12:37:34;15.52;;;3.42;;
32918;SDS011;19280;42.646;21.150;2022-07-23T12:42:47;12.95;;;2.90;;
32918;SDS011;19280;42.646;21.150;2022-07-23T12:45:14;10.65;;;3.58;;
32918;SDS011;19280;42.646;21.150;2022-07-23T12:47:55;8.48;;;3.13;;
32918;SDS011;19280;42.646;21.150;2022-07-23T12:53:05;12.93;;;3.10;;
32918;SDS011;19280;42.646;21.150;2022-07-23T12:55:33;7.85;;;2.78;;
32918;SDS011;19280;42.646;21.150;2022-07-23T12:58:09;7.15;;;3.33;;
32918;SDS011;19280;42.646;21.150;2022-07-23T13:00:50;11.40;;;3.15;;
32918;SDS011;19280;42.646;21.150;2022-07-23T13:03:26;10.13;;;3.33;;
32918;SDS011;19280;42.646;21.150;2022-07-23T13:05:54;15.43;;;3.58;;
32918;SDS011;19280;42.646;21.150;2022-07-23T13:08:23;12.18;;;3.60;;
32918;SDS011;19280;42.646;21.150;2022-07-23T13:10:50;20.15;;;3.67;;
32918;SDS011;19280;42.646;21.150;2022-07-23T13:13:19;11.90;;;3.47;;
32918;SDS011;19280;42.646;21.150;2022-07-23T13:15:46;9.05;;;3.63;;
32918;SDS011;19280;42.646;21.150;2022-07-23T13:18:14;8.95;;;3.30;;
32918;SDS011;19280;42.646;21.150;2022-07-23T13:20:42;10.52;;;3.88;;
32918;SDS011;19280;42.646;21.150;2022-07-23T13:23:09;8.52;;;3.67;;
32918;SDS011;19280;42.646;21.150;2022-07-23T13:25:36;7.75;;;3.58;;
32918;SDS011;19280;42.646;21.150;2022-07-23T13:28:03;12.38;;;3.85;;
32918;SDS011;19280;42.646;21.150;2022-07-23T13:30:30;8.18;;;3.40;;
32918;SDS011;19280;42.646;21.150;2022-07-23T13:32:56;12.52;;;3.33;;
32918;SDS011;19280;42.646;21.150;2022-07-23T13:35:23;8.95;;;3.33;;
32918;SDS011;19280;42.646;21.150;2022-07-23T13:37:50;11.50;;;3.38;;
32918;SDS011;19280;42.646;21.150;2022-07-23T13:40:17;9.00;;;3.00;;
32918;SDS011;19280;42.646;21.150;2022-07-23T13:42:43;12.20;;;3.50;;
32918;SDS011;19280;42.646;21.150;2022-07-23T13:45:10;8.98;;;3.40;;
32918;SDS011;19280;42.646;21.150;2022-07-23T13:47:38;12.43;;;3.70;;
32918;SDS011;19280;42.646;21.150;2022-07-23T13:50:05;9.38;;;3.13;;
32918;SDS011;19280;42.646;21.150;2022-07-23T13:52:33;9.57;;;3.17;;
32918;SDS011;19280;42.646;21.150;2022-07-23T13:55:03;10.73;;;3.28;;
32918;SDS011;19280;42.646;21.150;2022-07-23T13:57:31;6.93;;;3.20;;
32918;SDS011;19280;42.646;21.150;2022-07-23T13:59:58;9.52;;;3.45;;
32918;SDS011;19280;42.646;21.150;2022-07-23T14:02:25;23.15;;;3.95;;
32918;SDS011;19280;42.646;21.150;2022-07-23T14:04:52;9.63;;;3.30;;
32918;SDS011;19280;42.646;21.150;2022-07-23T14:07:20;8.40;;;3.35;;
32918;SDS011;19280;42.646;21.150;2022-07-23T14:09:47;9.40;;;3.20;;
32918;SDS011;19280;42.646;21.150;2022-07-23T14:12:15;6.68;;;2.90;;
32918;SDS011;19280;42.646;21.150;2022-07-23T14:14:43;8.63;;;3.00;;
32918;SDS011;19280;42.646;21.150;2022-07-23T14:17:10;10.50;;;3.35;;
32918;SDS011;19280;42.646;21.150;2022-07-23T14:19:37;7.30;;;2.90;;
32918;SDS011;19280;42.646;21.150;2022-07-23T14:22:04;10.48;;;3.33;;
32918;SDS011;19280;42.646;21.150;2022-07-23T14:24:30;7.18;;;2.80;;
32918;SDS011;19280;42.646;21.150;2022-07-23T14:26:58;11.82;;;3.33;;
32918;SDS011;19280;42.646;21.150;2022-07-23T14:29:26;8.93;;;3.53;;
32918;SDS011;19280;42.646;21.150;2022-07-23T14:31:53;9.73;;;3.40;;
32918;SDS011;19280;42.646;21.150;2022-07-23T14:34:19;9.77;;;3.65;;
32918;SDS011;19280;42.646;21.150;2022-07-23T14:36:46;12.32;;;3.22;;
32918;SDS011;19280;42.646;21.150;2022-07-23T14:39:14;7.65;;;3.28;;
32918;SDS011;19280;42.646;21.150;2022-07-23T14:41:41;7.30;;;3.33;;
32918;SDS011;19280;42.646;21.150;2022-07-23T14:44:08;4.43;;;2.58;;
32918;SDS011;19280;42.646;21.150;2022-07-23T14:46:35;6.38;;;2.95;;
32918;SDS011;19280;42.646;21.150;2022-07-23T14:49:02;12.20;;;2.85;;
32918;SDS011;19280;42.646;21.150;2022-07-23T14:51:29;11.55;;;2.80;;
32918;SDS011;19280;42.646;21.150;2022-07-23T14:53:56;8.18;;;3.20;;
32918;SDS011;19280;42.646;21.150;2022-07-23T14:56:22;10.63;;;3.30;;
32918;SDS011;19280;42.646;21.150;2022-07-23T14:58:49;7.10;;;3.08;;
32918;SDS011;19280;42.646;21.150;2022-07-23T15:01:17;6.82;;;2.88;;
32918;SDS011;19280;42.646;21.150;2022-07-23T15:03:44;7.80;;;3.33;;
32918;SDS011;19280;42.646;21.150;2022-07-23T15:06:11;9.68;;;3.45;;
32918;SDS011;19280;42.646;21.150;2022-07-23T15:08:38;12.75;;;4.15;;
32918;SDS011;19280;42.646;21.150;2022-07-23T15:11:05;11.57;;;3.50;;
32918;SDS011;19280;42.646;21.150;2022-07-23T15:13:34;11.48;;;3.08;;
32918;SDS011;19280;42.646;21.150;2022-07-23T15:16:02;18.67;;;3.33;;
32918;SDS011;19280;42.646;21.150;2022-07-23T15:18:30;8.65;;;3.40;;
32918;SDS011;19280;42.646;21.150;2022-07-23T15:20:57;6.38;;;3.25;;
32918;SDS011;19280;42.646;21.150;2022-07-23T15:23:24;11.02;;;3.17;;
32918;SDS011;19280;42.646;21.150;2022-07-23T15:25:56;8.40;;;3.13;;
32918;SDS011;19280;42.646;21.150;2022-07-23T15:28:24;8.00;;;3.30;;
32918;SDS011;19280;42.646;21.150;2022-07-23T15:30:52;9.70;;;3.05;;
32918;SDS011;19280;42.646;21.150;2022-07-23T15:33:19;6.18;;;3.13;;